Allouez, Wisconsin
Current Conditions -  °F | °C
As of 10:53 PM on Friday 31 Oct 2014 (Local Time) from KGRB Reporting Station
Overcast Overcast  
Wind Chill: 24°   Ceiling: 4200
Heat Index: 33°   Visibility: 10mi
Dew Point: 20°   Wind: 12mph
Humidity: 59%   Direction: 10°N
Pressure: 30.45"   Gusts: NA
Location:  44.48°N, 88.02°W
Report Text: KGRB 010353Z 01010KT 10SM OVC042 01/M07 A3045 RMK AO2 SLP319 T00061067
Loading
Personal Weather Stations






























Interactive Weather Map
Tropical Storm Tracking
New forecast layout! Learn more

10-Day Weather Forecast

Advertisements
Track Severe Weather on mobile